Time;durP1;ratioP1;P1;durP2;ratioP2;P2;SDS_P1;SDS_P2;PMS_P1;PMS_P2;Temp;Humidity;BMP_temperature;BMP_pressure;BME280_temperature;BME280_humidity;BME280_pressure;Samples;Min_cycle;Max_cycle;Signal;HPM_P1;HPM_P2
2023/03/15 00:00:45;;;;;;;1.00;0.73;;;5.10;99.90;;;;;;5036730;28;20487;-51
2023/03/15 00:03:13;;;;;;;1.13;0.83;;;5.30;99.90;;;;;;5035506;28;20487;-50
2023/03/15 00:05:42;;;;;;;1.20;0.80;;;5.50;99.90;;;;;;5035212;28;20456;-50
2023/03/15 00:08:11;;;;;;;1.30;1.00;;;5.70;99.90;;;;;;5033985;28;20545;-50
2023/03/15 00:10:40;;;;;;;1.33;0.87;;;5.70;99.90;;;;;;5034017;28;20453;-51
2023/03/15 00:13:09;;;;;;;1.70;1.17;;;5.40;99.90;;;;;;5034782;28;20961;-50
2023/03/15 00:15:37;;;;;;;1.30;0.93;;;5.30;99.90;;;;;;5034662;28;20960;-50
2023/03/15 00:18:04;;;;;;;1.83;0.80;;;5.20;99.90;;;;;;5034428;28;20529;-50
2023/03/15 00:20:31;;;;;;;1.00;0.70;;;5.20;99.90;;;;;;5034576;28;20533;-50
2023/03/15 00:22:58;;;;;;;1.10;0.80;;;5.30;99.90;;;;;;5034269;28;20971;-51
2023/03/15 00:25:25;;;;;;;2.27;1.37;;;5.30;99.90;;;;;;5034186;28;20873;-51
2023/03/15 00:27:52;;;;;;;2.10;0.97;;;5.20;99.90;;;;;;5034295;28;20505;-52
2023/03/15 00:30:20;;;;;;;1.00;0.80;;;5.30;99.90;;;;;;5034012;28;20489;-52
2023/03/15 00:32:47;;;;;;;3.60;1.27;;;5.30;99.90;;;;;;5033682;28;20486;-50
2023/03/15 00:35:17;;;;;;;1.23;0.80;;;5.50;99.90;;;;;;5034379;28;20485;-51
2023/03/15 00:37:44;;;;;;;1.40;1.17;;;5.70;99.90;;;;;;5033702;28;20492;-51
2023/03/15 00:40:12;;;;;;;1.20;0.70;;;5.80;99.90;;;;;;5034171;28;20521;-51
2023/03/15 00:42:39;;;;;;;1.97;1.10;;;5.80;99.90;;;;;;5033608;28;20482;-52
2023/03/15 00:45:07;;;;;;;2.37;1.10;;;5.70;99.90;;;;;;5034148;28;20477;-49
2023/03/15 00:47:35;;;;;;;1.13;0.93;;;5.50;99.90;;;;;;5033714;28;20482;-51
2023/03/15 00:50:02;;;;;;;1.40;1.10;;;5.40;99.90;;;;;;5033598;28;20557;-50
2023/03/15 00:52:35;;;;;;;2.20;0.90;;;5.40;99.90;;;;;;5033458;28;20439;-50
2023/03/15 00:55:03;;;;;;;1.20;0.97;;;5.20;99.90;;;;;;5034325;28;20438;-50
2023/03/15 00:57:30;;;;;;;1.40;0.90;;;4.50;99.90;;;;;;5034090;28;20465;-50
2023/03/15 00:59:57;;;;;;;2.20;0.93;;;4.90;99.90;;;;;;5033515;28;20540;-50
2023/03/15 01:02:24;;;;;;;2.20;1.00;;;5.20;99.90;;;;;;5034217;28;20474;-50
2023/03/15 01:04:52;;;;;;;1.20;0.90;;;5.40;99.90;;;;;;5033847;28;20539;-50
2023/03/15 01:07:20;;;;;;;1.20;0.80;;;5.00;99.90;;;;;;5033910;28;20509;-50
2023/03/15 01:09:47;;;;;;;1.40;0.97;;;4.60;99.90;;;;;;5033927;28;20486;-50
2023/03/15 01:12:14;;;;;;;1.97;1.00;;;4.60;99.90;;;;;;5033737;28;20450;-50
2023/03/15 01:14:41;;;;;;;1.20;0.90;;;4.90;99.90;;;;;;5033621;28;20476;-51
2023/03/15 01:17:08;;;;;;;1.27;1.10;;;5.00;99.90;;;;;;5033183;28;20502;-52
2023/03/15 01:19:35;;;;;;;1.30;1.17;;;5.30;99.90;;;;;;5037138;28;20489;-50
2023/03/15 01:22:03;;;;;;;1.37;1.13;;;5.30;99.90;;;;;;5037705;28;20509;-51
2023/03/15 01:24:30;;;;;;;1.30;0.83;;;5.20;99.90;;;;;;5038758;28;20509;-49
2023/03/15 01:26:57;;;;;;;1.70;1.10;;;5.10;99.90;;;;;;5037933;28;20544;-49
2023/03/15 01:29:24;;;;;;;1.67;1.10;;;4.30;99.90;;;;;;5037998;28;20577;-50
2023/03/15 01:31:50;;;;;;;3.10;1.23;;;4.10;99.90;;;;;;5037694;28;20894;-51
2023/03/15 01:34:17;;;;;;;1.47;1.00;;;4.10;99.90;;;;;;5038333;28;20488;-52
2023/03/15 01:36:44;;;;;;;1.10;0.73;;;4.00;99.90;;;;;;5038212;28;21056;-49
2023/03/15 01:39:12;;;;;;;1.33;1.10;;;4.40;99.90;;;;;;5038583;28;20469;-49
2023/03/15 01:41:39;;;;;;;1.10;0.87;;;4.60;99.90;;;;;;5038177;28;20828;-49
2023/03/15 01:44:12;;;;;;;1.10;0.90;;;4.80;99.90;;;;;;5038243;28;20524;-49
2023/03/15 01:46:40;;;;;;;1.20;0.80;;;4.80;99.90;;;;;;5038672;28;20553;-49
2023/03/15 01:49:11;;;;;;;1.37;0.90;;;4.80;99.90;;;;;;5038365;28;20988;-50
2023/03/15 01:51:44;;;;;;;1.00;0.70;;;4.90;99.90;;;;;;5038168;28;20496;-50
2023/03/15 01:54:16;;;;;;;1.00;0.60;;;4.90;99.90;;;;;;5037643;28;21021;-50
2023/03/15 01:56:49;;;;;;;1.20;1.10;;;5.00;99.90;;;;;;5041551;28;21142;-50
2023/03/15 01:59:21;;;;;;;1.20;0.80;;;5.10;99.90;;;;;;5037773;28;20442;-51
2023/03/15 02:01:49;;;;;;;1.70;1.10;;;5.00;99.90;;;;;;5038216;28;20473;-52
2023/03/15 02:04:23;;;;;;;1.40;0.80;;;4.80;99.90;;;;;;5038046;28;20446;-51
2023/03/15 02:06:57;;;;;;;1.23;0.80;;;4.90;99.90;;;;;;5037023;28;20611;-51
2023/03/15 02:09:32;;;;;;;1.00;0.77;;;5.10;99.90;;;;;;5037702;28;20996;-50
2023/03/15 02:11:59;;;;;;;1.00;0.70;;;5.10;99.90;;;;;;5037518;28;20513;-50
2023/03/15 02:14:27;;;;;;;1.17;1.00;;;4.80;99.90;;;;;;5037699;28;20560;-50
2023/03/15 02:16:55;;;;;;;1.10;0.90;;;4.80;99.90;;;;;;5036822;28;20569;-50
2023/03/15 02:19:33;;;;;;;1.97;1.30;;;5.00;99.90;;;;;;5037239;28;20470;-51
2023/03/15 02:22:11;;;;;;;4.07;0.90;;;5.10;99.90;;;;;;5037168;28;20548;-51
2023/03/15 02:24:44;;;;;;;1.13;0.97;;;4.80;99.90;;;;;;5051476;28;20452;-50
2023/03/15 02:27:11;;;;;;;1.27;1.10;;;3.70;99.90;;;;;;5057728;28;20499;-52
2023/03/15 02:29:40;;;;;;;1.50;1.23;;;3.40;99.90;;;;;;5057641;28;20556;-51
2023/03/15 02:32:08;;;;;;;1.60;1.30;;;3.40;99.90;;;;;;5057415;28;20454;-52
2023/03/15 02:34:35;;;;;;;2.60;1.67;;;3.50;99.90;;;;;;5048366;28;20527;-49
2023/03/15 02:37:02;;;;;;;5.20;1.60;;;3.60;99.90;;;;;;5037776;28;20495;-51
2023/03/15 02:39:29;;;;;;;1.27;1.00;;;3.60;99.90;;;;;;5038080;28;20451;-50
2023/03/15 02:41:58;;;;;;;2.10;1.23;;;3.70;99.90;;;;;;5038060;28;20501;-50
2023/03/15 02:44:29;;;;;;;1.77;1.60;;;3.60;99.90;;;;;;5038416;28;20885;-50
2023/03/15 02:47:01;;;;;;;1.40;1.30;;;3.70;99.90;;;;;;5040175;28;20555;-50
2023/03/15 02:49:31;;;;;;;1.30;0.90;;;3.60;99.90;;;;;;5057647;28;20510;-50
2023/03/15 02:51:58;;;;;;;1.20;1.00;;;3.40;99.90;;;;;;5057761;28;20953;-50
2023/03/15 02:54:25;;;;;;;2.13;1.47;;;3.50;99.90;;;;;;5057472;28;20518;-50
2023/03/15 02:56:52;;;;;;;1.30;1.17;;;3.50;99.90;;;;;;5057297;28;21068;-49
2023/03/15 02:59:19;;;;;;;2.27;1.40;;;4.10;99.90;;;;;;5056182;28;20798;-50
2023/03/15 03:01:46;;;;;;;1.40;1.20;;;3.90;99.90;;;;;;5057383;28;20512;-50
2023/03/15 03:04:14;;;;;;;1.77;1.20;;;3.70;99.90;;;;;;5051344;28;20716;-48
2023/03/15 03:06:42;;;;;;;1.50;1.40;;;3.70;99.90;;;;;;5047422;28;20838;-51
2023/03/15 03:09:09;;;;;;;3.10;1.67;;;3.80;99.90;;;;;;5053320;28;20514;-50
2023/03/15 03:11:36;;;;;;;3.53;1.43;;;3.70;99.90;;;;;;5033294;28;20543;-48
2023/03/15 03:14:03;;;;;;;1.00;0.70;;;3.60;99.90;;;;;;5033354;28;20657;-49
2023/03/15 03:16:31;;;;;;;0.90;0.50;;;3.00;99.90;;;;;;5032977;28;20490;-48
2023/03/15 03:18:58;;;;;;;1.00;0.80;;;2.90;99.90;;;;;;5033131;28;20443;-51
2023/03/15 03:21:26;;;;;;;0.90;0.60;;;3.10;99.90;;;;;;5115948;22;20584;-47
2023/03/15 03:23:54;;;;;;;1.60;1.07;;;3.50;99.90;;;;;;5062149;28;20533;-48
2023/03/15 03:26:26;;;;;;;1.00;0.80;;;3.40;99.90;;;;;;5052523;28;20468;-47
2023/03/15 03:28:54;;;;;;;0.90;0.60;;;3.50;99.90;;;;;;5053042;28;20485;-48
2023/03/15 03:31:23;;;;;;;1.10;0.80;;;3.60;99.90;;;;;;5052507;28;20993;-48
2023/03/15 03:33:50;;;;;;;0.90;0.60;;;3.60;99.90;;;;;;5052907;28;20476;-48
2023/03/15 03:36:18;;;;;;;1.03;0.70;;;3.80;99.90;;;;;;5051987;28;20593;-48
2023/03/15 03:38:47;;;;;;;0.83;0.67;;;3.60;99.90;;;;;;5052509;28;20496;-47
2023/03/15 03:41:15;;;;;;;0.90;0.67;;;3.60;99.90;;;;;;5052131;28;20544;-47
2023/03/15 03:43:42;;;;;;;0.90;0.70;;;3.70;99.90;;;;;;5052733;28;20450;-47
2023/03/15 03:46:08;;;;;;;0.80;0.60;;;3.70;99.90;;;;;;5067280;28;20543;-48
2023/03/15 03:48:35;;;;;;;0.90;0.57;;;3.80;99.90;;;;;;5070730;28;20576;-48
2023/03/15 03:51:02;;;;;;;0.90;0.70;;;3.90;99.90;;;;;;5072202;28;20519;-48
2023/03/15 03:53:29;;;;;;;0.90;0.60;;;3.80;99.90;;;;;;5072543;28;20441;-48
2023/03/15 03:55:57;;;;;;;1.00;0.70;;;3.60;99.90;;;;;;5072311;28;20486;-48
2023/03/15 03:58:24;;;;;;;0.90;0.70;;;3.80;99.90;;;;;;5071084;28;20525;-48
2023/03/15 04:00:53;;;;;;;0.90;0.60;;;3.70;99.90;;;;;;5072300;28;20492;-50
2023/03/15 04:03:26;;;;;;;0.90;0.60;;;4.00;99.90;;;;;;5072098;28;20809;-47
2023/03/15 04:05:53;;;;;;;1.13;0.80;;;4.10;99.90;;;;;;5072104;28;20509;-48
2023/03/15 04:08:20;;;;;;;1.20;0.77;;;4.00;99.90;;;;;;5072229;28;20971;-48
2023/03/15 04:10:50;;;;;;;0.80;0.50;;;3.80;99.90;;;;;;5071815;28;20524;-48
2023/03/15 04:13:18;;;;;;;0.90;0.70;;;3.80;99.90;;;;;;5071373;28;20536;-49
2023/03/15 04:15:45;;;;;;;1.40;0.70;;;3.60;99.90;;;;;;5072036;28;20523;-47
2023/03/15 04:18:12;;;;;;;0.90;0.70;;;4.00;99.90;;;;;;5071682;28;20594;-48
2023/03/15 04:20:45;;;;;;;1.10;0.50;;;4.10;99.90;;;;;;5071353;28;20551;-48
2023/03/15 04:23:13;;;;;;;4.83;1.40;;;3.80;99.90;;;;;;5071783;28;20479;-48
2023/03/15 04:25:40;;;;;;;0.87;0.50;;;4.10;99.90;;;;;;5071606;28;20441;-47
2023/03/15 04:28:09;;;;;;;1.10;0.70;;;3.90;99.90;;;;;;5072125;28;20456;-49
2023/03/15 04:30:37;;;;;;;0.90;0.70;;;4.10;99.90;;;;;;5071726;28;20509;-48
2023/03/15 04:33:05;;;;;;;0.97;0.60;;;4.30;99.90;;;;;;5070786;28;20439;-47
2023/03/15 04:35:33;;;;;;;1.00;0.70;;;4.40;99.90;;;;;;5071984;28;20470;-48
2023/03/15 04:38:01;;;;;;;1.90;0.90;;;4.50;99.90;;;;;;5071793;28;20530;-48
2023/03/15 04:40:28;;;;;;;1.10;0.70;;;4.50;99.90;;;;;;5071526;28;20516;-48
2023/03/15 04:42:55;;;;;;;3.97;2.13;;;4.40;99.90;;;;;;5071620;28;20526;-48
2023/03/15 04:45:22;;;;;;;2.37;1.70;;;4.10;99.90;;;;;;5071480;28;20486;-48
2023/03/15 04:47:51;;;;;;;0.80;0.60;;;4.00;99.90;;;;;;5071699;28;20438;-47
2023/03/15 04:50:19;;;;;;;1.00;0.60;;;3.80;99.90;;;;;;5071064;28;21051;-48
2023/03/15 04:52:46;;;;;;;1.00;0.70;;;3.80;99.90;;;;;;5070831;28;20537;-49
2023/03/15 04:55:13;;;;;;;0.90;0.60;;;3.80;99.90;;;;;;5071409;28;20485;-48
2023/03/15 04:57:40;;;;;;;0.90;0.50;;;3.70;99.90;;;;;;5071175;28;21013;-47
2023/03/15 05:00:10;;;;;;;0.90;0.50;;;3.50;99.90;;;;;;5051475;28;20541;-49
2023/03/15 05:02:40;;;;;;;0.90;0.70;;;3.20;99.90;;;;;;5051423;28;20453;-47
2023/03/15 05:05:09;;;;;;;1.07;0.60;;;3.10;99.90;;;;;;5049717;28;20484;-48
2023/03/15 05:07:37;;;;;;;1.00;0.50;;;3.50;99.90;;;;;;5049546;28;20477;-49
2023/03/15 05:10:04;;;;;;;1.17;0.70;;;2.70;99.90;;;;;;5049467;28;20502;-47
2023/03/15 05:12:32;;;;;;;2.13;0.67;;;2.30;99.90;;;;;;5061898;28;20951;-47
2023/03/15 05:14:59;;;;;;;0.80;0.50;;;2.20;99.90;;;;;;5069440;28;20455;-48
2023/03/15 05:17:26;;;;;;;1.00;0.57;;;2.30;99.90;;;;;;5066411;28;20469;-48
2023/03/15 05:19:53;;;;;;;0.90;0.50;;;2.40;99.90;;;;;;5050576;28;20438;-48
2023/03/15 05:22:24;;;;;;;0.80;0.53;;;2.40;99.90;;;;;;5051029;28;20548;-47
2023/03/15 05:24:52;;;;;;;0.90;0.60;;;2.30;99.90;;;;;;5051072;28;20477;-47
2023/03/15 05:27:19;;;;;;;0.90;0.60;;;2.10;99.90;;;;;;5068541;28;20484;-47
2023/03/15 05:29:46;;;;;;;1.00;0.67;;;2.10;99.90;;;;;;5060101;28;20534;-48
2023/03/15 05:32:13;;;;;;;0.90;0.70;;;2.10;99.90;;;;;;5050689;28;20565;-47
2023/03/15 05:34:41;;;;;;;0.80;0.40;;;2.30;99.90;;;;;;5067656;28;20465;-48
2023/03/15 05:37:08;;;;;;;0.90;0.70;;;2.20;99.90;;;;;;5070212;28;20511;-48
2023/03/15 05:39:36;;;;;;;1.63;0.70;;;1.90;99.90;;;;;;5070804;28;20502;-48
2023/03/15 05:42:03;;;;;;;1.03;0.73;;;2.10;99.90;;;;;;5065426;28;20465;-49
2023/03/15 05:44:30;;;;;;;0.90;0.60;;;2.30;99.90;;;;;;5050954;28;20470;-48
2023/03/15 05:46:57;;;;;;;0.90;0.60;;;2.40;99.90;;;;;;5058283;28;20523;-47
2023/03/15 05:49:24;;;;;;;0.90;0.70;;;2.40;99.90;;;;;;5069077;28;20528;-47
2023/03/15 05:51:51;;;;;;;1.10;0.80;;;2.50;99.90;;;;;;5069747;28;21049;-48
2023/03/15 05:54:18;;;;;;;1.77;0.53;;;2.60;99.90;;;;;;5069542;28;20882;-47
2023/03/15 05:56:46;;;;;;;1.50;1.30;;;2.70;99.90;;;;;;5069648;28;20525;-47
2023/03/15 05:59:13;;;;;;;1.20;1.10;;;2.90;99.90;;;;;;5069182;28;20846;-48
2023/03/15 06:01:40;;;;;;;1.30;1.13;;;3.00;99.90;;;;;;5065399;28;20535;-48
2023/03/15 06:04:07;;;;;;;1.13;0.90;;;3.10;99.90;;;;;;5068804;28;20473;-50
2023/03/15 06:06:33;;;;;;;2.20;0.90;;;2.80;99.90;;;;;;5066095;28;20485;-49
2023/03/15 06:09:00;;;;;;;1.67;1.57;;;3.00;99.90;;;;;;5068576;28;20436;-48
2023/03/15 06:11:27;;;;;;;1.07;0.60;;;3.10;99.90;;;;;;5065257;28;20507;-47
2023/03/15 06:13:55;;;;;;;1.00;0.80;;;3.00;99.90;;;;;;5057013;28;20889;-47
2023/03/15 06:16:22;;;;;;;0.90;0.70;;;2.90;99.90;;;;;;5065150;28;20604;-47
2023/03/15 06:18:49;;;;;;;0.90;0.60;;;2.80;99.90;;;;;;5066957;28;20523;-48
2023/03/15 06:21:16;;;;;;;1.20;0.63;;;2.70;99.90;;;;;;5063111;28;20477;-49
2023/03/15 06:23:43;;;;;;;1.10;0.70;;;2.80;99.90;;;;;;5073170;28;20528;-46
2023/03/15 06:26:10;;;;;;;0.90;0.60;;;2.70;99.90;;;;;;5070005;28;20460;-49
2023/03/15 06:28:37;;;;;;;1.00;0.70;;;2.80;99.90;;;;;;5070143;28;20471;-47
2023/03/15 06:31:07;;;;;;;1.33;0.90;;;2.70;99.90;;;;;;5067262;28;20564;-47
2023/03/15 06:33:34;;;;;;;1.40;0.80;;;2.70;99.90;;;;;;5058357;28;20561;-49
2023/03/15 06:36:01;;;;;;;1.60;1.00;;;2.70;99.90;;;;;;5053384;28;20529;-47
2023/03/15 06:38:28;;;;;;;1.53;1.07;;;2.60;99.90;;;;;;5053616;28;20875;-47
2023/03/15 06:40:57;;;;;;;0.97;0.77;;;2.50;99.90;;;;;;5053903;28;20462;-48
2023/03/15 06:43:24;;;;;;;1.60;1.30;;;2.50;99.90;;;;;;5053720;28;20464;-47
2023/03/15 06:45:52;;;;;;;0.90;0.80;;;2.50;99.90;;;;;;5054240;28;20523;-47
2023/03/15 06:48:20;;;;;;;1.13;0.80;;;2.50;99.90;;;;;;5052989;28;20503;-47
2023/03/15 06:50:47;;;;;;;1.77;0.80;;;2.60;99.90;;;;;;5070848;28;20517;-47
2023/03/15 06:53:14;;;;;;;1.07;0.77;;;2.60;99.90;;;;;;5061221;28;20500;-47
2023/03/15 06:55:41;;;;;;;1.50;1.00;;;2.50;99.90;;;;;;5053469;28;20808;-48
2023/03/15 06:58:08;;;;;;;1.30;0.80;;;2.50;99.90;;;;;;5052835;28;20478;-47
2023/03/15 07:00:35;;;;;;;2.23;1.30;;;2.50;99.90;;;;;;5051648;28;20493;-47
2023/03/15 07:03:04;;;;;;;0.93;0.70;;;2.60;99.90;;;;;;5053421;28;20445;-47
2023/03/15 07:05:32;;;;;;;1.00;0.70;;;2.50;99.90;;;;;;5052722;28;20528;-47
2023/03/15 07:07:59;;;;;;;1.00;0.70;;;2.40;99.90;;;;;;5053550;28;20527;-46
2023/03/15 07:10:26;;;;;;;0.87;0.60;;;2.40;99.90;;;;;;5050815;28;20562;-47
2023/03/15 07:12:53;;;;;;;4.00;1.53;;;2.60;99.90;;;;;;5052809;28;21015;-47
2023/03/15 07:15:20;;;;;;;0.90;0.60;;;2.70;99.90;;;;;;5052853;28;20480;-47
2023/03/15 07:17:47;;;;;;;1.10;0.70;;;2.80;99.90;;;;;;5051798;28;20477;-50
2023/03/15 07:20:14;;;;;;;1.00;0.70;;;2.80;99.90;;;;;;5052740;28;20635;-47
2023/03/15 07:22:44;;;;;;;1.43;0.60;;;3.10;99.90;;;;;;5052698;28;20442;-46
2023/03/15 07:25:11;;;;;;;0.90;0.67;;;3.00;99.90;;;;;;5053034;28;20447;-47
2023/03/15 07:27:38;;;;;;;1.00;0.70;;;2.70;99.90;;;;;;5052477;28;20482;-47
2023/03/15 07:30:07;;;;;;;0.90;0.70;;;2.70;99.90;;;;;;5052263;28;20552;-47
2023/03/15 07:32:33;;;;;;;1.20;0.77;;;2.60;99.90;;;;;;5052624;28;20450;-48
2023/03/15 07:35:00;;;;;;;0.90;0.67;;;2.50;99.90;;;;;;5052822;28;20528;-47
2023/03/15 07:37:28;;;;;;;1.00;0.70;;;2.50;99.90;;;;;;5052532;28;20940;-47
2023/03/15 07:39:57;;;;;;;1.33;0.90;;;2.40;99.90;;;;;;5052366;28;20429;-46
2023/03/15 07:42:24;;;;;;;1.10;1.00;;;2.50;99.90;;;;;;5052539;28;20438;-48
2023/03/15 07:44:51;;;;;;;0.90;0.70;;;2.70;99.90;;;;;;5052800;28;20943;-48
2023/03/15 07:47:18;;;;;;;1.20;1.00;;;2.60;99.90;;;;;;5052606;28;20484;-47
2023/03/15 07:49:44;;;;;;;1.33;0.87;;;2.70;99.90;;;;;;5052352;28;20472;-47
2023/03/15 07:52:12;;;;;;;1.47;0.77;;;2.60;99.90;;;;;;5052642;28;20561;-47
2023/03/15 07:54:39;;;;;;;1.40;1.10;;;2.60;99.90;;;;;;5052339;28;20948;-48
2023/03/15 07:57:08;;;;;;;1.03;0.60;;;2.60;99.90;;;;;;5052511;28;20529;-47
2023/03/15 07:59:34;;;;;;;0.87;0.50;;;2.60;99.90;;;;;;5052037;28;20524;-47
2023/03/15 08:02:01;;;;;;;1.00;0.70;;;2.70;99.90;;;;;;5051821;28;21016;-47
2023/03/15 08:04:28;;;;;;;1.10;0.90;;;2.50;99.90;;;;;;5052218;28;20493;-48
2023/03/15 08:06:55;;;;;;;0.90;0.60;;;2.60;99.90;;;;;;5070038;28;20440;-48
2023/03/15 08:09:22;;;;;;;0.80;0.50;;;2.70;99.90;;;;;;5071979;28;20484;-48
2023/03/15 08:11:49;;;;;;;1.33;0.93;;;2.80;99.90;;;;;;5071580;28;20601;-47
2023/03/15 08:14:17;;;;;;;1.20;0.90;;;2.80;99.90;;;;;;5071999;28;20979;-48
2023/03/15 08:16:44;;;;;;;1.10;0.70;;;2.90;99.90;;;;;;5071895;28;20468;-47
2023/03/15 08:19:11;;;;;;;2.13;1.00;;;3.00;99.90;;;;;;5071846;28;20524;-49
2023/03/15 08:21:38;;;;;;;0.90;0.70;;;3.20;99.90;;;;;;5069817;28;20555;-49
2023/03/15 08:24:05;;;;;;;1.17;0.90;;;3.10;99.90;;;;;;5069907;28;20487;-48
2023/03/15 08:26:32;;;;;;;0.97;0.80;;;3.10;99.90;;;;;;5069764;28;20476;-47
2023/03/15 08:28:59;;;;;;;1.70;0.80;;;3.10;99.90;;;;;;5070180;28;20822;-48
2023/03/15 08:31:27;;;;;;;1.20;0.73;;;3.20;99.90;;;;;;5070744;28;20508;-47
2023/03/15 08:33:54;;;;;;;2.13;1.00;;;3.20;99.90;;;;;;5071165;28;20856;-49
2023/03/15 08:36:21;;;;;;;1.00;0.83;;;3.20;99.90;;;;;;5071708;28;20464;-46
2023/03/15 08:38:48;;;;;;;1.60;1.30;;;3.20;99.90;;;;;;5071739;28;20528;-47
2023/03/15 08:41:15;;;;;;;1.43;1.03;;;3.30;99.90;;;;;;5071101;28;20549;-48
2023/03/15 08:43:42;;;;;;;0.90;0.80;;;3.30;99.90;;;;;;5071776;28;20445;-47
2023/03/15 08:46:09;;;;;;;1.10;0.80;;;3.40;99.90;;;;;;5071186;28;20971;-48
2023/03/15 08:48:37;;;;;;;2.10;0.90;;;3.40;99.90;;;;;;5071366;28;20453;-48
2023/03/15 08:51:06;;;;;;;1.83;1.17;;;3.50;99.90;;;;;;5071313;28;20914;-48
2023/03/15 08:53:33;;;;;;;1.50;1.10;;;3.30;99.90;;;;;;5070639;28;20983;-48
2023/03/15 08:56:00;;;;;;;1.40;1.03;;;3.40;99.90;;;;;;5070180;28;20473;-49
2023/03/15 08:58:27;;;;;;;1.20;0.87;;;3.40;99.90;;;;;;5069812;28;20453;-48
2023/03/15 09:00:54;;;;;;;1.10;0.80;;;3.40;99.90;;;;;;5070424;28;20496;-48
2023/03/15 09:03:22;;;;;;;1.07;0.90;;;3.40;99.90;;;;;;5070290;28;20474;-47
2023/03/15 09:05:55;;;;;;;1.30;0.90;;;3.40;99.90;;;;;;5070008;28;20549;-47
2023/03/15 09:08:24;;;;;;;1.77;0.80;;;3.60;99.90;;;;;;5071205;28;20529;-47
2023/03/15 09:10:54;;;;;;;1.10;0.70;;;3.70;99.90;;;;;;5071240;28;20473;-48
2023/03/15 09:13:21;;;;;;;1.10;0.80;;;3.70;99.90;;;;;;5071239;28;20445;-47
2023/03/15 09:15:50;;;;;;;1.37;1.00;;;3.80;99.90;;;;;;5071455;28;20474;-47
2023/03/15 09:18:17;;;;;;;1.50;1.10;;;3.90;99.90;;;;;;5070457;28;20447;-49
2023/03/15 09:20:44;;;;;;;1.00;0.80;;;3.90;99.90;;;;;;5071475;28;20505;-47
2023/03/15 09:23:12;;;;;;;1.50;0.90;;;3.90;99.90;;;;;;5071037;28;20529;-50
2023/03/15 09:25:40;;;;;;;1.33;0.90;;;4.00;99.90;;;;;;5070311;28;21015;-48
2023/03/15 09:28:10;;;;;;;1.73;0.87;;;4.20;99.90;;;;;;5071041;28;20464;-48
2023/03/15 09:30:38;;;;;;;0.97;0.70;;;4.30;99.90;;;;;;5070688;28;20986;-47
2023/03/15 09:33:06;;;;;;;1.40;1.13;;;4.60;99.90;;;;;;5071088;28;20563;-47
2023/03/15 09:35:33;;;;;;;1.10;0.80;;;4.20;99.90;;;;;;5070882;28;20507;-47
2023/03/15 09:38:00;;;;;;;2.30;1.00;;;4.30;99.90;;;;;;5071000;28;20469;-49
2023/03/15 09:40:31;;;;;;;1.10;0.90;;;4.50;99.90;;;;;;5073709;28;20544;-47
2023/03/15 09:43:06;;;;;;;1.10;0.90;;;4.30;99.90;;;;;;5074832;28;20438;-49
2023/03/15 09:45:48;;;;;;;2.90;1.70;;;4.20;99.90;;;;;;5075025;28;20436;-47
2023/03/15 09:48:20;;;;;;;2.27;1.20;;;4.50;99.90;;;;;;5074980;28;20796;-48
2023/03/15 09:50:51;;;;;;;2.13;0.97;;;4.60;99.90;;;;;;5074582;28;20558;-48
2023/03/15 09:53:24;;;;;;;1.73;1.20;;;4.40;99.90;;;;;;5074460;28;20521;-49
2023/03/15 09:55:52;;;;;;;2.00;0.97;;;4.20;99.90;;;;;;5075062;28;20499;-49
2023/03/15 09:58:24;;;;;;;1.00;0.80;;;4.40;99.90;;;;;;5074127;28;20484;-50
2023/03/15 10:00:54;;;;;;;1.80;1.20;;;4.60;99.90;;;;;;5074467;28;20463;-50
2023/03/15 10:03:29;;;;;;;1.67;1.07;;;4.90;99.90;;;;;;5074275;28;20529;-51
2023/03/15 10:05:58;;;;;;;1.33;1.10;;;4.80;99.90;;;;;;5074578;28;20432;-48
2023/03/15 10:08:25;;;;;;;1.37;0.73;;;5.20;99.90;;;;;;5074610;28;20789;-50
2023/03/15 10:11:00;;;;;;;1.20;1.10;;;5.00;99.90;;;;;;5074148;28;20455;-48
2023/03/15 10:13:45;;;;;;;1.10;0.93;;;4.80;99.90;;;;;;5074386;28;20525;-48
2023/03/15 10:16:28;;;;;;;2.30;0.97;;;5.10;99.90;;;;;;5073529;28;20946;-48
2023/03/15 10:19:05;;;;;;;1.10;0.90;;;5.30;99.90;;;;;;5074596;28;20443;-48
2023/03/15 10:21:42;;;;;;;0.90;0.63;;;5.20;99.90;;;;;;5073931;28;20493;-49
2023/03/15 10:24:17;;;;;;;1.17;0.77;;;5.30;99.90;;;;;;5074231;28;20443;-48
2023/03/15 10:26:48;;;;;;;1.20;0.77;;;4.60;99.90;;;;;;5073611;28;20528;-48
2023/03/15 10:29:19;;;;;;;1.17;0.87;;;4.60;99.90;;;;;;5074124;28;20444;-48
2023/03/15 10:31:47;;;;;;;1.30;0.80;;;4.60;99.90;;;;;;5073859;28;20752;-47
2023/03/15 10:34:15;;;;;;;1.13;0.87;;;4.90;99.90;;;;;;5074070;28;20474;-46
2023/03/15 10:36:53;;;;;;;1.20;0.77;;;5.10;99.90;;;;;;5073932;28;20446;-48
2023/03/15 10:39:20;;;;;;;1.00;0.57;;;5.10;99.90;;;;;;5074191;28;20451;-48
2023/03/15 10:41:50;;;;;;;0.90;0.60;;;5.30;99.90;;;;;;5073657;28;21065;-48
2023/03/15 10:44:19;;;;;;;1.40;1.00;;;5.30;99.90;;;;;;5074126;28;20873;-48
2023/03/15 10:47:01;;;;;;;1.20;0.80;;;5.20;99.30;;;;;;5074549;28;20446;-48
2023/03/15 10:49:35;;;;;;;1.30;0.80;;;5.60;99.90;;;;;;5073776;28;20888;-48
2023/03/15 10:52:03;;;;;;;1.00;0.80;;;5.80;99.90;;;;;;5072790;28;20491;-48
2023/03/15 10:54:32;;;;;;;1.30;0.63;;;5.50;97.70;;;;;;5073502;28;20436;-49
2023/03/15 10:57:04;;;;;;;1.40;0.97;;;5.50;98.50;;;;;;5073487;28;20440;-48
2023/03/15 10:59:32;;;;;;;1.33;0.97;;;5.60;99.80;;;;;;5073043;28;21119;-48
2023/03/15 11:02:21;;;;;;;1.00;0.50;;;6.20;99.90;;;;;;5058770;28;20477;-48
2023/03/15 11:04:51;;;;;;;1.27;0.77;;;6.00;98.30;;;;;;5053691;28;20446;-48
2023/03/15 11:07:17;;;;;;;1.77;0.70;;;6.30;99.10;;;;;;5053600;28;20441;-48
2023/03/15 11:09:51;;;;;;;1.87;1.20;;;6.20;99.90;;;;;;5053177;28;20473;-49
2023/03/15 11:12:24;;;;;;;2.07;0.93;;;6.20;99.90;;;;;;5053041;28;20560;-48
2023/03/15 11:14:56;;;;;;;1.13;0.70;;;6.60;99.90;;;;;;5053440;28;20481;-51
2023/03/15 11:17:25;;;;;;;1.57;1.07;;;6.80;99.90;;;;;;5052739;28;20525;-51
2023/03/15 11:19:56;;;;;;;1.10;0.70;;;6.70;99.80;;;;;;5052913;28;20476;-48
2023/03/15 11:22:24;;;;;;;1.30;0.77;;;6.30;97.60;;;;;;5052972;28;20928;-48
2023/03/15 11:24:53;;;;;;;1.10;0.87;;;6.30;98.10;;;;;;5052866;28;20555;-48
2023/03/15 11:27:24;;;;;;;1.87;0.60;;;6.00;98.80;;;;;;5052543;28;20524;-48
2023/03/15 11:29:54;;;;;;;0.90;0.60;;;6.20;98.90;;;;;;5052591;28;20469;-50
2023/03/15 11:32:24;;;;;;;1.30;0.80;;;6.20;97.60;;;;;;5051874;28;20501;-51
2023/03/15 11:34:58;;;;;;;1.13;0.80;;;6.30;98.80;;;;;;5067148;28;20480;-48
2023/03/15 11:37:29;;;;;;;1.30;0.83;;;6.00;96.90;;;;;;5072439;28;20475;-48
2023/03/15 11:40:01;;;;;;;1.10;0.80;;;6.00;97.70;;;;;;5069545;28;20781;-48
2023/03/15 11:42:33;;;;;;;1.10;1.00;;;6.10;94.90;;;;;;5071677;28;20468;-48
2023/03/15 11:45:04;;;;;;;1.13;0.70;;;5.70;93.70;;;;;;5069872;28;20478;-49
2023/03/15 11:47:41;;;;;;;1.50;1.10;;;5.90;96.90;;;;;;5072040;28;20445;-48
2023/03/15 11:50:13;;;;;;;1.00;0.70;;;6.10;96.20;;;;;;5071875;28;20484;-48
2023/03/15 11:52:41;;;;;;;0.90;0.70;;;6.40;98.80;;;;;;5058007;28;20501;-48
2023/03/15 11:55:17;;;;;;;1.93;0.60;;;6.70;98.30;;;;;;5059464;28;20455;-48
2023/03/15 11:57:47;;;;;;;1.50;0.90;;;6.80;96.90;;;;;;5071542;28;20452;-49
2023/03/15 12:00:52;;;;;;;5.33;0.90;;;7.00;99.90;;;;;;5072141;28;20867;-48
2023/03/15 12:03:35;;;;;;;1.00;0.73;;;7.20;99.90;;;;;;5047284;28;20971;-50
2023/03/15 12:06:28;;;;;;;1.27;0.70;;;7.40;99.90;;;;;;5072413;28;20527;-51
2023/03/15 12:08:55;;;;;;;1.30;0.60;;;7.40;99.30;;;;;;5071762;28;21007;-48
2023/03/15 12:11:43;;;;;;;1.20;0.73;;;7.10;98.40;;;;;;5070735;28;20492;-49
2023/03/15 12:14:28;;;;;;;1.50;0.93;;;7.30;99.40;;;;;;5065154;28;20849;-48
2023/03/15 12:17:37;;;;;;;1.10;0.70;;;7.20;96.10;;;;;;5071397;28;20848;-48
2023/03/15 12:20:16;;;;;;;1.40;0.90;;;7.20;97.40;;;;;;5071623;28;20476;-48
2023/03/15 12:22:49;;;;;;;1.30;0.90;;;7.00;95.90;;;;;;5067471;28;20465;-48
2023/03/15 12:25:19;;;;;;;1.00;0.80;;;7.20;96.20;;;;;;5070566;28;20527;-50
2023/03/15 12:27:50;;;;;;;1.10;0.50;;;7.20;94.90;;;;;;5071484;28;20509;-49
2023/03/15 12:30:25;;;;;;;1.00;0.70;;;6.90;92.30;;;;;;5071769;28;20543;-49
2023/03/15 12:32:55;;;;;;;1.10;0.80;;;7.10;96.50;;;;;;5071211;28;20543;-48
2023/03/15 12:35:25;;;;;;;1.17;0.70;;;6.70;93.40;;;;;;5071433;28;20448;-48
2023/03/15 12:37:53;;;;;;;4.30;0.90;;;6.60;94.50;;;;;;5071714;28;20473;-48
2023/03/15 12:40:39;;;;;;;1.10;0.70;;;6.80;96.00;;;;;;5071444;28;20832;-48
2023/03/15 12:43:07;;;;;;;1.17;0.77;;;6.70;93.10;;;;;;5071193;28;20451;-48
2023/03/15 12:45:44;;;;;;;1.10;0.87;;;6.20;91.80;;;;;;5071432;28;20958;-48
2023/03/15 12:48:22;;;;;;;2.57;1.30;;;6.50;96.70;;;;;;5071515;28;20444;-48
2023/03/15 12:50:55;;;;;;;2.20;1.00;;;6.60;93.50;;;;;;5071162;28;20548;-48
2023/03/15 12:53:28;;;;;;;1.00;0.87;;;6.90;96.90;;;;;;5071163;28;20559;-50
2023/03/15 12:55:56;;;;;;;1.10;0.70;;;6.90;96.30;;;;;;5071756;28;20444;-47
2023/03/15 12:58:32;;;;;;;1.10;0.70;;;6.80;93.00;;;;;;5070049;28;20487;-48
2023/03/15 13:01:05;;;;;;;1.67;0.83;;;6.90;95.30;;;;;;5067002;28;20487;-50
2023/03/15 13:03:34;;;;;;;1.07;0.80;;;7.00;96.60;;;;;;5050005;28;20835;-48
2023/03/15 13:06:07;;;;;;;1.40;0.87;;;7.10;96.10;;;;;;5051214;28;20528;-48
2023/03/15 13:08:43;;;;;;;1.13;0.60;;;7.20;95.50;;;;;;5051182;28;20476;-48